createdAt,value
2018-03-26T00:02:13.166Z,5.90
2018-03-26T00:04:40.726Z,5.89
2018-03-26T00:07:08.361Z,5.85
2018-03-26T00:09:35.963Z,5.82
2018-03-26T00:12:03.536Z,5.82
2018-03-26T00:14:31.115Z,5.78
2018-03-26T00:16:58.743Z,5.74
2018-03-26T00:19:26.310Z,5.82
2018-03-26T00:21:53.899Z,5.79
2018-03-26T00:24:21.474Z,5.91
2018-03-26T00:26:49.038Z,5.92
2018-03-26T00:29:16.639Z,5.97
2018-03-26T00:31:44.202Z,5.99
2018-03-26T00:34:11.887Z,6.02
2018-03-26T00:36:39.465Z,6.01
2018-03-26T00:39:07.065Z,6.04
2018-03-26T00:41:34.707Z,6.03
2018-03-26T00:44:02.285Z,6.02
2018-03-26T00:46:29.867Z,6.03
2018-03-26T00:48:57.499Z,6.00
2018-03-26T00:51:25.124Z,6.00
2018-03-26T00:53:52.681Z,5.96
2018-03-26T00:56:20.239Z,5.97
2018-03-26T00:58:47.867Z,5.99
2018-03-26T01:01:15.438Z,6.02
2018-03-26T01:03:43.070Z,5.98
2018-03-26T01:06:10.626Z,6.00
2018-03-26T01:08:38.252Z,6.01
2018-03-26T01:11:05.880Z,6.00
2018-03-26T01:13:33.446Z,5.99
2018-03-26T01:16:01.026Z,5.98
2018-03-26T01:18:28.651Z,5.93
2018-03-26T01:20:56.232Z,5.84
2018-03-26T01:23:23.802Z,5.92
2018-03-26T01:25:51.431Z,5.95
2018-03-26T01:28:19.012Z,5.96
2018-03-26T01:30:46.575Z,5.93
2018-03-26T01:33:14.144Z,5.95
2018-03-26T01:35:41.702Z,5.92
2018-03-26T01:38:09.345Z,5.91
2018-03-26T01:40:36.923Z,5.91
2018-03-26T01:43:04.543Z,5.86
2018-03-26T01:45:32.122Z,5.84
2018-03-26T01:47:59.682Z,5.86
2018-03-26T01:50:27.296Z,5.83
2018-03-26T01:52:54.902Z,5.83
2018-03-26T01:55:22.478Z,5.79
2018-03-26T01:57:50.042Z,5.76
2018-03-26T02:00:17.667Z,5.76
2018-03-26T02:02:45.243Z,5.81
2018-03-26T02:05:12.811Z,5.75
2018-03-26T02:07:40.455Z,5.75
2018-03-26T02:10:08.086Z,5.76
2018-03-26T02:12:35.714Z,5.79
2018-03-26T02:15:03.315Z,5.67
2018-03-26T02:17:30.938Z,5.69
2018-03-26T02:19:58.572Z,5.61
2018-03-26T02:22:26.147Z,5.65
2018-03-26T02:24:53.723Z,5.74
2018-03-26T02:27:21.360Z,5.76
2018-03-26T02:29:48.925Z,5.74
2018-03-26T02:32:16.482Z,5.76
2018-03-26T02:34:44.109Z,5.80
2018-03-26T02:37:11.670Z,5.82
2018-03-26T02:39:39.309Z,5.85
2018-03-26T02:42:06.894Z,5.83
2018-03-26T02:44:34.532Z,5.85
2018-03-26T02:47:02.146Z,5.76
2018-03-26T02:49:29.713Z,5.73
2018-03-26T02:51:57.338Z,5.77
2018-03-26T02:54:24.983Z,5.79
2018-03-26T02:56:52.554Z,5.74
2018-03-26T02:59:20.192Z,5.74
2018-03-26T03:01:47.815Z,5.72
2018-03-26T03:04:15.414Z,5.68
2018-03-26T03:06:42.997Z,5.63
2018-03-26T03:09:10.585Z,5.55
2018-03-26T03:11:38.168Z,5.55
2018-03-26T03:14:05.811Z,5.55
2018-03-26T03:16:33.436Z,5.62
2018-03-26T03:19:01.019Z,5.68
2018-03-26T03:21:28.583Z,5.74
2018-03-26T03:23:56.251Z,5.72
2018-03-26T03:26:23.874Z,5.68
2018-03-26T03:28:51.455Z,5.66
2018-03-26T03:31:19.092Z,5.65
2018-03-26T03:33:46.657Z,5.62
2018-03-26T03:36:14.307Z,5.57
2018-03-26T03:38:41.896Z,5.57
2018-03-26T03:41:09.466Z,5.54
2018-03-26T03:43:37.035Z,5.51
2018-03-26T03:46:04.606Z,5.40
2018-03-26T03:48:32.304Z,5.37
2018-03-26T03:50:59.926Z,5.35
2018-03-26T03:53:27.490Z,5.36
2018-03-26T03:55:55.064Z,5.35
2018-03-26T03:58:22.626Z,5.38
2018-03-26T04:00:50.311Z,5.48
2018-03-26T04:03:17.892Z,5.59
2018-03-26T04:05:45.461Z,5.65
2018-03-26T04:08:13.094Z,5.69
2018-03-26T04:10:40.653Z,5.73
2018-03-26T04:13:08.282Z,5.82
2018-03-26T04:15:35.926Z,5.85
2018-03-26T04:18:03.546Z,5.77
2018-03-26T04:20:31.170Z,5.76
2018-03-26T04:22:58.730Z,5.75
2018-03-26T04:25:26.359Z,5.76
2018-03-26T04:27:53.923Z,5.79
2018-03-26T04:30:21.551Z,5.86
2018-03-26T04:32:49.118Z,5.94
2018-03-26T04:35:16.683Z,5.97
2018-03-26T04:37:44.372Z,5.96
2018-03-26T04:40:11.990Z,6.01
2018-03-26T04:42:39.554Z,6.02
2018-03-26T04:45:07.191Z,6.01
2018-03-26T04:47:34.764Z,5.96
2018-03-26T04:50:02.382Z,5.94
2018-03-26T04:52:29.951Z,5.93
2018-03-26T04:54:57.515Z,6.00
2018-03-26T04:57:25.142Z,6.10
2018-03-26T04:59:52.702Z,6.11
2018-03-26T05:02:20.388Z,6.11
2018-03-26T05:04:48.008Z,6.21
2018-03-26T05:07:15.635Z,6.27
2018-03-26T05:09:43.290Z,6.33
2018-03-26T05:12:10.846Z,6.37
2018-03-26T05:14:38.473Z,6.44
2018-03-26T05:17:06.050Z,6.48
2018-03-26T05:19:33.674Z,6.59
2018-03-26T05:22:01.246Z,6.71
2018-03-26T05:24:28.815Z,6.72
2018-03-26T05:26:56.433Z,6.50
2018-03-26T05:29:23.998Z,6.57
2018-03-26T05:31:51.601Z,6.66
2018-03-26T05:34:19.184Z,6.66
2018-03-26T05:36:46.750Z,6.71
2018-03-26T05:39:14.459Z,6.72
2018-03-26T05:41:42.079Z,6.81
2018-03-26T05:44:09.704Z,7.01
2018-03-26T05:46:37.331Z,7.23
2018-03-26T05:49:04.996Z,7.31
2018-03-26T05:51:32.630Z,7.36
2018-03-26T05:54:00.194Z,7.49
2018-03-26T05:56:27.758Z,7.33
2018-03-26T05:58:55.326Z,7.27
2018-03-26T06:01:22.914Z,7.40
2018-03-26T06:03:50.632Z,7.43
2018-03-26T06:06:18.199Z,7.39
2018-03-26T06:08:45.776Z,7.44
2018-03-26T06:11:13.409Z,7.36
2018-03-26T06:13:40.991Z,7.22
2018-03-26T06:16:08.688Z,7.05
2018-03-26T06:18:36.286Z,6.77
2018-03-26T06:21:03.882Z,6.62
2018-03-26T06:23:31.607Z,6.59
2018-03-26T06:25:59.206Z,6.49
2018-03-26T06:28:26.932Z,6.22
2018-03-26T06:30:54.599Z,6.13
2018-03-26T06:33:22.194Z,6.25
2018-03-26T06:35:49.802Z,6.34
2018-03-26T06:38:22.256Z,6.28
2018-03-26T06:40:49.900Z,6.31
2018-03-26T06:43:17.559Z,6.11
2018-03-26T06:45:45.243Z,5.96
2018-03-26T06:48:12.807Z,6.19
2018-03-26T06:50:40.422Z,6.03
2018-03-26T06:53:08.047Z,6.04
2018-03-26T06:55:35.606Z,6.04
2018-03-26T06:58:03.174Z,6.14
2018-03-26T07:00:30.796Z,6.27
2018-03-26T07:02:58.424Z,6.44
2018-03-26T07:05:26.135Z,6.57
2018-03-26T07:07:53.693Z,6.49
2018-03-26T07:10:21.327Z,6.48
2018-03-26T07:12:48.943Z,6.46
2018-03-26T07:15:16.538Z,6.41
2018-03-26T07:17:44.102Z,6.25
2018-03-26T07:20:11.770Z,6.23
2018-03-26T07:22:39.341Z,6.21
2018-03-26T07:25:06.907Z,6.20
2018-03-26T07:27:34.478Z,6.27
2018-03-26T07:30:02.055Z,6.30
2018-03-26T07:32:29.630Z,6.49
2018-03-26T07:34:57.198Z,6.77
2018-03-26T07:37:24.874Z,6.78
2018-03-26T07:39:52.496Z,6.75
2018-03-26T07:42:20.062Z,6.68
2018-03-26T07:44:47.639Z,6.53
2018-03-26T07:47:15.199Z,6.60
2018-03-26T07:49:42.765Z,6.76
2018-03-26T07:52:10.379Z,6.93
2018-03-26T07:54:38.000Z,7.10
2018-03-26T07:57:05.634Z,7.43
2018-03-26T07:59:33.190Z,7.62
2018-03-26T08:02:00.762Z,7.33
2018-03-26T08:04:28.343Z,7.12
2018-03-26T08:06:55.975Z,7.46
2018-03-26T08:09:23.598Z,7.38
2018-03-26T08:11:51.217Z,7.61
2018-03-26T08:14:18.778Z,8.13
2018-03-26T08:16:46.418Z,8.02
2018-03-26T08:19:14.056Z,7.79
2018-03-26T08:21:41.682Z,7.91
2018-03-26T08:24:09.258Z,8.39
2018-03-26T08:26:36.828Z,8.49
2018-03-26T08:29:04.549Z,8.66
2018-03-26T08:31:32.112Z,8.58
2018-03-26T08:33:59.674Z,9.01
2018-03-26T08:36:27.269Z,9.11
2018-03-26T08:38:54.849Z,8.87
2018-03-26T08:41:22.432Z,8.61
2018-03-26T08:43:49.998Z,8.32
2018-03-26T08:46:17.622Z,8.68
2018-03-26T08:48:45.254Z,8.89
2018-03-26T08:51:12.832Z,8.79
2018-03-26T08:53:40.464Z,8.70
2018-03-26T08:56:08.002Z,8.59
2018-03-26T08:58:35.575Z,8.79
2018-03-26T09:01:03.191Z,9.21
2018-03-26T09:03:30.809Z,9.26
2018-03-26T09:05:58.370Z,9.10
2018-03-26T09:08:25.934Z,8.62
2018-03-26T09:10:53.510Z,8.92
2018-03-26T09:13:21.074Z,8.98
2018-03-26T09:15:48.683Z,8.81
2018-03-26T09:18:16.243Z,8.82
2018-03-26T09:20:44.614Z,8.58
2018-03-26T09:23:12.283Z,8.53
2018-03-26T09:25:39.898Z,8.78
2018-03-26T09:28:07.536Z,8.72
2018-03-26T09:30:35.107Z,9.01
2018-03-26T09:33:02.734Z,8.84
2018-03-26T09:35:30.308Z,8.68
2018-03-26T09:37:57.925Z,8.62
2018-03-26T09:40:25.486Z,8.78
2018-03-26T09:42:53.056Z,9.00
2018-03-26T09:45:20.626Z,9.15
2018-03-26T09:47:48.202Z,8.95
2018-03-26T09:50:15.814Z,9.21
2018-03-26T09:52:43.375Z,9.29
2018-03-26T09:55:11.068Z,8.61
2018-03-26T09:57:38.686Z,8.73
2018-03-26T10:00:06.324Z,8.58
2018-03-26T10:02:33.894Z,8.45
2018-03-26T10:05:01.457Z,8.48
2018-03-26T10:07:29.034Z,8.34
2018-03-26T10:09:56.654Z,8.54
2018-03-26T10:12:24.274Z,8.95
2018-03-26T10:14:51.894Z,8.92
2018-03-26T10:17:19.504Z,8.94
2018-03-26T10:19:47.139Z,8.84
2018-03-26T10:22:14.802Z,9.12
2018-03-26T10:24:42.378Z,9.08
2018-03-26T10:27:10.006Z,9.20
2018-03-26T10:29:37.644Z,9.39
2018-03-26T10:32:05.206Z,9.28
2018-03-26T10:34:32.826Z,8.36
2018-03-26T10:37:00.396Z,8.56
2018-03-26T10:39:28.019Z,8.70
2018-03-26T10:41:55.582Z,8.48
2018-03-26T10:44:23.206Z,8.63
2018-03-26T10:46:50.895Z,8.23
2018-03-26T10:49:18.458Z,8.46
2018-03-26T10:51:46.096Z,8.50
2018-03-26T10:54:13.732Z,8.56
2018-03-26T10:56:41.355Z,8.39
2018-03-26T10:59:08.931Z,8.69
2018-03-26T11:01:36.504Z,8.86
2018-03-26T11:04:04.173Z,9.12
2018-03-26T11:06:31.746Z,8.99
2018-03-26T11:08:59.322Z,8.99
2018-03-26T11:11:26.958Z,9.20
2018-03-26T11:13:54.524Z,9.24
2018-03-26T11:16:22.160Z,9.47
2018-03-26T11:18:49.735Z,9.50
2018-03-26T11:21:17.441Z,9.42
2018-03-26T11:23:45.082Z,9.18
2018-03-26T11:26:12.669Z,9.09
2018-03-26T11:28:40.251Z,8.75
2018-03-26T11:31:07.886Z,8.64
2018-03-26T11:33:35.523Z,8.43
2018-03-26T11:36:03.175Z,8.44
2018-03-26T11:38:30.755Z,8.40
2018-03-26T11:40:58.404Z,8.43
2018-03-26T11:43:25.987Z,8.42
2018-03-26T11:45:53.631Z,8.54
2018-03-26T11:48:21.275Z,8.40
2018-03-26T11:50:48.904Z,8.59
2018-03-26T11:53:16.548Z,8.68
2018-03-26T11:55:44.180Z,8.85
2018-03-26T11:58:11.802Z,8.75
2018-03-26T12:00:39.443Z,8.31
2018-03-26T12:03:07.410Z,8.16
2018-03-26T12:05:35.051Z,8.14
2018-03-26T12:08:02.698Z,8.28
2018-03-26T12:10:30.282Z,8.41
2018-03-26T12:12:57.861Z,8.50
2018-03-26T12:15:25.495Z,8.43
2018-03-26T12:17:53.084Z,8.30
2018-03-26T12:20:32.458Z,8.20
2018-03-26T12:23:06.800Z,8.04
2018-03-26T12:25:34.440Z,8.03
2018-03-26T12:28:13.929Z,8.02
2018-03-26T12:30:41.562Z,7.86
2018-03-26T12:33:09.227Z,7.86
2018-03-26T12:36:00.447Z,7.86
2018-03-26T12:38:28.018Z,7.80
2018-03-26T12:40:55.699Z,7.84
2018-03-26T12:43:23.278Z,7.89
2018-03-26T12:46:02.656Z,7.90
2018-03-26T12:48:30.751Z,7.97
2018-03-26T12:51:10.078Z,7.96
2018-03-26T12:53:37.708Z,8.13
2018-03-26T12:56:05.335Z,8.13
2018-03-26T12:58:51.889Z,8.05
2018-03-26T13:01:31.142Z,7.93
2018-03-26T13:03:58.722Z,7.97
2018-03-26T13:06:26.304Z,8.01
2018-03-26T13:08:53.939Z,7.99
2018-03-26T13:11:21.528Z,7.97
2018-03-26T13:13:49.140Z,7.87
2018-03-26T13:16:16.749Z,7.79
2018-03-26T13:18:44.331Z,7.75
2018-03-26T13:21:11.916Z,7.68
2018-03-26T13:23:39.582Z,7.98
2018-03-26T13:26:07.215Z,8.18
2018-03-26T13:28:34.842Z,8.23
2018-03-26T13:31:02.421Z,8.28
2018-03-26T13:33:30.046Z,8.19
2018-03-26T13:35:57.629Z,8.05
2018-03-26T13:38:25.217Z,8.17
2018-03-26T13:40:52.807Z,8.36
2018-03-26T13:43:20.497Z,8.37
2018-03-26T13:45:48.145Z,8.19
2018-03-26T13:48:15.760Z,8.24
2018-03-26T13:50:43.350Z,8.33
2018-03-26T13:53:10.943Z,8.12
2018-03-26T13:55:38.531Z,8.11
2018-03-26T13:58:06.187Z,7.95
2018-03-26T14:00:33.774Z,7.79
2018-03-26T14:03:01.403Z,7.66
2018-03-26T14:05:29.049Z,7.65
2018-03-26T14:07:56.682Z,7.45
2018-03-26T14:10:35.934Z,7.41
2018-03-26T14:13:15.260Z,7.39
2018-03-26T14:15:54.567Z,7.21
2018-03-26T14:18:22.149Z,7.20
2018-03-26T14:20:49.827Z,7.16
2018-03-26T14:23:17.418Z,7.20
2018-03-26T14:25:45.954Z,7.10
2018-03-26T14:28:13.539Z,7.03
2018-03-26T14:30:41.116Z,6.89
2018-03-26T14:33:08.704Z,6.93
2018-03-26T14:35:43.226Z,6.93
2018-03-26T14:38:10.823Z,7.06
2018-03-26T14:40:38.420Z,7.13
2018-03-26T14:43:06.119Z,7.18
2018-03-26T14:45:33.703Z,7.11
2018-03-26T14:48:01.375Z,7.08
2018-03-26T14:50:29.012Z,7.15
2018-03-26T14:52:56.609Z,7.21
2018-03-26T14:55:24.227Z,6.89
2018-03-26T14:57:51.810Z,6.78
2018-03-26T15:00:19.506Z,6.77
2018-03-26T15:02:47.134Z,6.75
2018-03-26T15:05:14.824Z,6.75
2018-03-26T15:07:42.420Z,6.68
2018-03-26T15:10:10.002Z,6.76
2018-03-26T15:12:37.648Z,6.73
2018-03-26T15:15:05.294Z,6.63
2018-03-26T15:17:32.995Z,6.72
2018-03-26T15:20:00.627Z,6.70
2018-03-26T15:22:28.202Z,6.55
2018-03-26T15:24:55.791Z,6.56
2018-03-26T15:27:23.514Z,6.57
2018-03-26T15:29:51.066Z,6.57
2018-03-26T15:32:18.712Z,6.45
2018-03-26T15:34:46.395Z,6.39
2018-03-26T15:37:14.039Z,6.29
2018-03-26T15:39:41.644Z,6.24
2018-03-26T15:42:09.810Z,6.22
2018-03-26T15:44:37.395Z,6.25
2018-03-26T15:47:05.001Z,6.27
2018-03-26T15:49:32.583Z,6.11
2018-03-26T15:52:00.218Z,6.13
2018-03-26T15:54:27.853Z,6.09
2018-03-26T15:56:55.435Z,6.07
2018-03-26T15:59:23.034Z,5.98
2018-03-26T16:01:50.619Z,5.93
2018-03-26T16:04:18.245Z,5.93
2018-03-26T16:06:45.821Z,5.89
2018-03-26T16:09:13.526Z,5.93
2018-03-26T16:11:41.102Z,5.95
2018-03-26T16:14:08.744Z,5.90
2018-03-26T16:16:36.333Z,5.89
2018-03-26T16:19:03.983Z,5.91
2018-03-26T16:21:31.618Z,5.89
2018-03-26T16:23:59.206Z,5.84
2018-03-26T16:26:26.912Z,5.82
2018-03-26T16:28:54.500Z,5.75
2018-03-26T16:31:22.090Z,5.76
2018-03-26T16:33:49.691Z,5.70
2018-03-26T16:36:17.277Z,5.70
2018-03-26T16:38:44.932Z,5.73
2018-03-26T16:41:12.633Z,5.69
2018-03-26T16:43:40.350Z,5.68
2018-03-26T16:46:07.947Z,5.76
2018-03-26T16:48:35.534Z,5.70
2018-03-26T16:51:04.746Z,5.72
2018-03-26T16:53:32.338Z,5.71
2018-03-26T16:55:59.998Z,5.68
2018-03-26T16:58:27.579Z,5.61
2018-03-26T17:00:55.300Z,5.61
2018-03-26T17:03:22.900Z,5.53
2018-03-26T17:05:50.507Z,5.54
2018-03-26T17:08:18.100Z,5.59
2018-03-26T17:10:45.760Z,5.57
2018-03-26T17:13:13.366Z,5.51
2018-03-26T17:15:41.046Z,5.55
2018-03-26T17:18:08.686Z,5.54
2018-03-26T17:20:36.271Z,5.54
2018-03-26T17:23:03.851Z,5.55
2018-03-26T17:25:31.434Z,5.44
2018-03-26T17:27:59.430Z,5.46
2018-03-26T17:30:27.015Z,5.48
2018-03-26T17:32:54.594Z,5.46
2018-03-26T17:35:22.231Z,5.49
2018-03-26T17:37:49.819Z,5.48
2018-03-26T17:40:17.394Z,5.50
2018-03-26T17:42:45.599Z,5.40
2018-03-26T17:45:14.500Z,5.40
2018-03-26T17:47:43.032Z,5.43
2018-03-26T17:50:10.615Z,5.39
2018-03-26T17:52:38.258Z,5.44
2018-03-26T17:55:05.839Z,5.43
2018-03-26T17:57:33.418Z,5.36
2018-03-26T18:00:01.006Z,5.40
2018-03-26T18:02:28.597Z,5.35
2018-03-26T18:04:56.190Z,5.35
2018-03-26T18:07:23.775Z,5.39
2018-03-26T18:09:51.410Z,5.48
2018-03-26T18:12:19.066Z,5.39
2018-03-26T18:14:46.653Z,5.32
2018-03-26T18:17:14.246Z,5.30
2018-03-26T18:19:42.020Z,5.32
2018-03-26T18:22:09.646Z,5.33
2018-03-26T18:24:37.306Z,5.39
2018-03-26T18:27:04.958Z,5.40
2018-03-26T18:29:32.532Z,5.45
2018-03-26T18:32:00.191Z,5.45
2018-03-26T18:34:27.838Z,5.35
2018-03-26T18:36:55.442Z,5.34
2018-03-26T18:39:23.087Z,5.33
2018-03-26T18:41:50.724Z,5.37
2018-03-26T18:44:18.378Z,5.39
2018-03-26T18:46:45.961Z,5.29
2018-03-26T18:49:13.625Z,5.28
2018-03-26T18:51:41.217Z,5.20
2018-03-26T18:54:10.640Z,5.19
2018-03-26T18:56:38.671Z,5.25
2018-03-26T18:59:06.242Z,5.21
2018-03-26T19:01:33.951Z,5.15
2018-03-26T19:04:01.599Z,5.21
2018-03-26T19:06:29.261Z,5.21
2018-03-26T19:08:56.860Z,5.27
2018-03-26T19:11:24.498Z,5.32
2018-03-26T19:13:52.089Z,5.29
2018-03-26T19:16:19.723Z,5.33
2018-03-26T19:18:47.371Z,5.23
2018-03-26T19:21:15.783Z,5.24
2018-03-26T19:23:43.369Z,5.27
2018-03-26T19:26:10.975Z,5.16
2018-03-26T19:28:38.576Z,5.20
2018-03-26T19:31:06.175Z,5.27
2018-03-26T19:33:33.750Z,5.32
2018-03-26T19:36:01.384Z,5.33
2018-03-26T19:38:28.972Z,5.30
2018-03-26T19:40:56.547Z,5.28
2018-03-26T19:43:24.141Z,5.27
2018-03-26T19:45:51.797Z,5.26
2018-03-26T19:48:19.489Z,5.29
2018-03-26T19:50:47.073Z,5.22
2018-03-26T19:53:14.656Z,5.31
2018-03-26T19:55:42.295Z,5.23
2018-03-26T19:58:09.940Z,5.29
2018-03-26T20:00:37.562Z,5.21
2018-03-26T20:03:05.199Z,5.21
2018-03-26T20:05:32.827Z,5.18
2018-03-26T20:08:00.463Z,5.21
2018-03-26T20:10:28.117Z,5.23
2018-03-26T20:12:55.807Z,5.24
2018-03-26T20:15:23.386Z,5.24
2018-03-26T20:17:51.014Z,5.22
2018-03-26T20:20:18.643Z,5.25
2018-03-26T20:22:46.283Z,5.28
2018-03-26T20:25:13.868Z,5.24
2018-03-26T20:27:41.442Z,5.23
2018-03-26T20:30:09.082Z,5.15
2018-03-26T20:32:36.655Z,5.19
2018-03-26T20:35:04.230Z,5.18
2018-03-26T20:37:31.882Z,5.27
2018-03-26T20:39:59.511Z,5.31
2018-03-26T20:42:27.104Z,5.37
2018-03-26T20:44:54.753Z,5.42
2018-03-26T20:47:22.395Z,5.42
2018-03-26T20:49:49.971Z,5.43
2018-03-26T20:52:17.549Z,5.46
2018-03-26T20:54:45.126Z,5.49
2018-03-26T20:57:12.766Z,5.47
2018-03-26T20:59:40.404Z,5.45
2018-03-26T21:02:08.035Z,5.49
2018-03-26T21:04:35.667Z,5.54
2018-03-26T21:07:03.312Z,5.56
2018-03-26T21:09:30.892Z,5.55
2018-03-26T21:11:58.473Z,5.60
2018-03-26T21:14:26.108Z,5.63
2018-03-26T21:16:53.807Z,5.66
2018-03-26T21:19:21.381Z,5.63
2018-03-26T21:21:48.946Z,5.58
2018-03-26T21:24:16.522Z,5.51
2018-03-26T21:26:44.134Z,5.45
2018-03-26T21:29:11.719Z,5.43
2018-03-26T21:31:39.286Z,5.39
2018-03-26T21:34:06.918Z,5.42
2018-03-26T21:36:34.528Z,5.38
2018-03-26T21:39:02.181Z,5.35
2018-03-26T21:41:29.818Z,5.32
2018-03-26T21:43:57.461Z,5.33
2018-03-26T21:46:25.098Z,5.41
2018-03-26T21:48:52.722Z,5.43
2018-03-26T21:51:20.370Z,5.38
2018-03-26T21:53:47.968Z,5.34
2018-03-26T21:56:15.545Z,5.34
2018-03-26T21:58:43.140Z,5.26
2018-03-26T22:01:10.706Z,5.25
2018-03-26T22:03:38.342Z,5.32
2018-03-26T22:06:05.971Z,5.32
2018-03-26T22:08:33.537Z,5.27
2018-03-26T22:11:01.125Z,5.27
2018-03-26T22:13:28.698Z,5.25
2018-03-26T22:15:56.276Z,5.19
2018-03-26T22:18:23.846Z,5.24
2018-03-26T22:20:51.491Z,5.28
2018-03-26T22:23:19.999Z,5.28
2018-03-26T22:25:47.565Z,5.31
2018-03-26T22:28:15.166Z,5.27
2018-03-26T22:30:42.741Z,5.28
2018-03-26T22:33:10.315Z,5.27
2018-03-26T22:35:37.942Z,5.32
2018-03-26T22:38:05.639Z,5.34
2018-03-26T22:40:33.267Z,5.27
2018-03-26T22:43:00.895Z,5.24
2018-03-26T22:45:28.476Z,5.21
2018-03-26T22:47:56.054Z,5.18
2018-03-26T22:50:23.687Z,5.18
2018-03-26T22:52:51.267Z,5.16
2018-03-26T22:55:18.886Z,5.18
2018-03-26T22:57:46.514Z,5.23
2018-03-26T23:00:14.238Z,5.29
2018-03-26T23:02:41.818Z,5.32
2018-03-26T23:05:09.455Z,5.37
2018-03-26T23:07:37.037Z,5.37
2018-03-26T23:10:04.625Z,5.36
2018-03-26T23:12:32.257Z,5.37
2018-03-26T23:14:59.890Z,5.38
2018-03-26T23:17:27.538Z,5.41
2018-03-26T23:19:55.118Z,5.47
2018-03-26T23:22:34.714Z,5.42
2018-03-26T23:25:02.355Z,5.43
2018-03-26T23:27:29.931Z,5.40
2018-03-26T23:29:57.609Z,5.40
2018-03-26T23:32:25.235Z,5.40
2018-03-26T23:34:52.826Z,5.45
2018-03-26T23:37:20.411Z,5.37
2018-03-26T23:39:47.986Z,5.41
2018-03-26T23:42:15.566Z,5.34
2018-03-26T23:44:43.134Z,5.36
2018-03-26T23:47:10.762Z,5.43
2018-03-26T23:49:38.330Z,5.45
2018-03-26T23:52:05.895Z,5.44
2018-03-26T23:54:33.543Z,5.44
2018-03-26T23:57:01.124Z,5.44
2018-03-26T23:59:28.701Z,5.43
